createdAt,value
2018-04-20T00:02:17.712Z,98918.82
2018-04-20T00:04:43.939Z,98919.44
2018-04-20T00:07:10.179Z,98917.55
2018-04-20T00:09:36.399Z,98915.75
2018-04-20T00:12:02.667Z,98920.05
2018-04-20T00:14:28.882Z,98913.84
2018-04-20T00:16:55.119Z,98910.23
2018-04-20T00:19:21.431Z,98913.52
2018-04-20T00:21:47.686Z,98903.39
2018-04-20T00:24:13.974Z,98904.31
2018-04-20T00:26:40.234Z,98901.27
2018-04-20T00:29:06.519Z,98902.70
2018-04-20T00:31:32.746Z,98903.84
2018-04-20T00:33:59.008Z,98900.49
2018-04-20T00:36:25.227Z,98901.67
2018-04-20T00:38:51.448Z,98891.82
2018-04-20T00:41:17.713Z,98892.80
2018-04-20T00:43:43.946Z,98888.90
2018-04-20T00:46:10.230Z,98883.44
2018-04-20T00:48:36.455Z,98888.52
2018-04-20T00:51:02.742Z,98885.77
2018-04-20T00:53:41.155Z,98887.98
2018-04-20T00:56:07.439Z,98881.06
2018-04-20T00:58:33.659Z,98881.70
2018-04-20T01:00:59.890Z,98886.38
2018-04-20T01:03:26.215Z,98879.15
2018-04-20T01:05:52.438Z,98881.74
2018-04-20T01:08:18.679Z,98882.13
2018-04-20T01:10:44.911Z,98879.78
2018-04-20T01:13:11.176Z,98882.72
2018-04-20T01:15:37.399Z,98877.30
2018-04-20T01:18:03.658Z,98878.95
2018-04-20T01:20:29.911Z,98877.60
2018-04-20T01:22:56.126Z,98877.45
2018-04-20T01:25:22.371Z,98874.17
2018-04-20T01:27:48.599Z,98875.19
2018-04-20T01:30:14.860Z,98869.72
2018-04-20T01:32:41.078Z,98871.89
2018-04-20T01:35:07.323Z,98870.48
2018-04-20T01:37:33.571Z,98867.05
2018-04-20T01:39:59.786Z,98865.71
2018-04-20T01:42:26.035Z,98868.32
2018-04-20T01:44:52.515Z,98869.90
2018-04-20T01:47:18.754Z,98867.59
2018-04-20T01:49:44.974Z,98865.50
2018-04-20T01:52:11.227Z,98864.34
2018-04-20T01:54:37.455Z,98862.03
2018-04-20T01:57:03.739Z,98863.19
2018-04-20T01:59:29.968Z,98861.19
2018-04-20T02:01:56.222Z,98858.02
2018-04-20T02:04:22.472Z,98858.58
2018-04-20T02:06:48.711Z,98857.77
2018-04-20T02:09:14.954Z,98854.62
2018-04-20T02:11:41.184Z,98857.89
2018-04-20T02:14:07.439Z,98851.05
2018-04-20T02:16:33.673Z,98848.31
2018-04-20T02:18:59.927Z,98849.57
2018-04-20T02:21:26.175Z,98841.90
2018-04-20T02:23:52.395Z,98840.64
2018-04-20T02:26:18.642Z,98837.78
2018-04-20T02:28:44.862Z,98833.73
2018-04-20T02:31:11.131Z,98843.63
2018-04-20T02:33:37.374Z,98838.09
2018-04-20T02:36:03.631Z,98829.70
2018-04-20T02:38:29.851Z,98824.97
2018-04-20T02:40:56.103Z,98828.01
2018-04-20T02:43:22.326Z,98829.23
2018-04-20T02:45:48.556Z,98830.41
2018-04-20T02:48:14.799Z,98822.66
2018-04-20T02:50:41.027Z,98827.78
2018-04-20T02:53:07.275Z,98825.77
2018-04-20T02:55:33.540Z,98825.51
2018-04-20T02:57:59.787Z,98823.81
2018-04-20T03:00:26.026Z,98825.08
2018-04-20T03:02:52.282Z,98815.33
2018-04-20T03:05:18.524Z,98817.88
2018-04-20T03:07:44.753Z,98810.34
2018-04-20T03:10:11.007Z,98813.22
2018-04-20T03:12:37.236Z,98807.99
2018-04-20T03:15:03.511Z,98808.38
2018-04-20T03:17:29.734Z,98808.80
2018-04-20T03:19:55.978Z,98808.94
2018-04-20T03:22:22.202Z,98800.62
2018-04-20T03:24:48.447Z,98805.64
2018-04-20T03:27:14.684Z,98806.21
2018-04-20T03:29:40.949Z,98800.71
2018-04-20T03:32:07.166Z,98797.97
2018-04-20T03:34:33.390Z,98798.66
2018-04-20T03:36:59.630Z,98794.85
2018-04-20T03:39:25.858Z,98793.13
2018-04-20T03:41:52.099Z,98802.66
2018-04-20T03:44:18.347Z,98800.02
2018-04-20T03:46:44.595Z,98795.83
2018-04-20T03:49:10.826Z,98789.51
2018-04-20T03:51:37.070Z,98801.69
2018-04-20T03:54:03.331Z,98792.92
2018-04-20T03:56:29.583Z,98791.67
2018-04-20T03:58:55.807Z,98792.92
2018-04-20T04:01:22.030Z,98791.97
2018-04-20T04:03:48.279Z,98796.09
2018-04-20T04:06:14.515Z,98798.32
2018-04-20T04:08:40.761Z,98792.34
2018-04-20T04:11:06.991Z,98798.80
2018-04-20T04:13:33.226Z,98793.95
2018-04-20T04:15:59.450Z,98799.55
2018-04-20T04:18:38.139Z,98800.25
2018-04-20T04:21:16.652Z,98796.75
2018-04-20T04:23:55.191Z,98801.20
2018-04-20T04:26:33.778Z,98796.89
2018-04-20T04:29:00.015Z,98802.26
2018-04-20T04:31:26.268Z,98803.03
2018-04-20T04:33:52.527Z,98807.31
2018-04-20T04:36:18.765Z,98802.27
2018-04-20T04:38:44.987Z,98801.64
2018-04-20T04:41:11.222Z,98807.62
2018-04-20T04:43:37.448Z,98806.55
2018-04-20T04:46:03.747Z,98810.11
2018-04-20T04:48:29.975Z,98803.55
2018-04-20T04:50:56.218Z,98812.53
2018-04-20T04:53:22.444Z,98813.88
2018-04-20T04:55:48.687Z,98804.09
2018-04-20T04:58:14.974Z,98810.18
2018-04-20T05:00:41.203Z,98812.18
2018-04-20T05:03:07.662Z,98812.80
2018-04-20T05:05:33.908Z,98816.28
2018-04-20T05:08:00.159Z,98817.31
2018-04-20T05:10:26.480Z,98813.58
2018-04-20T05:12:52.770Z,98812.31
2018-04-20T05:15:19.007Z,98816.97
2018-04-20T05:17:45.264Z,98810.45
2018-04-20T05:20:11.524Z,98815.81
2018-04-20T05:22:37.823Z,98822.10
2018-04-20T05:25:04.111Z,98815.47
2018-04-20T05:27:30.343Z,98819.01
2018-04-20T05:29:56.831Z,98819.17
2018-04-20T05:32:23.154Z,98816.16
2018-04-20T05:34:49.402Z,98820.02
2018-04-20T05:37:15.636Z,98813.09
2018-04-20T05:39:41.874Z,98814.03
2018-04-20T05:42:08.146Z,98816.73
2018-04-20T05:44:34.419Z,98818.34
2018-04-20T05:47:00.700Z,98817.29
2018-04-20T05:49:26.953Z,98813.29
2018-04-20T05:51:53.234Z,98809.00
2018-04-20T05:54:19.501Z,98813.94
2018-04-20T05:56:45.790Z,98807.01
2018-04-20T05:59:12.056Z,98814.14
2018-04-20T06:01:40.207Z,98814.70
2018-04-20T06:04:06.494Z,98816.97
2018-04-20T06:06:32.762Z,98814.69
2018-04-20T06:08:59.051Z,98810.47
2018-04-20T06:11:25.311Z,98814.80
2018-04-20T06:13:51.591Z,98812.41
2018-04-20T06:16:17.852Z,98801.98
2018-04-20T06:18:44.142Z,98800.48
2018-04-20T06:21:10.439Z,98800.44
2018-04-20T06:23:36.736Z,98801.18
2018-04-20T06:26:03.029Z,98797.14
2018-04-20T06:28:29.291Z,98798.25
2018-04-20T06:30:55.539Z,98796.63
2018-04-20T06:33:21.795Z,98798.88
2018-04-20T06:35:48.050Z,98791.26
2018-04-20T06:38:14.279Z,98794.43
2018-04-20T06:40:40.575Z,98788.48
2018-04-20T06:43:06.799Z,98793.62
2018-04-20T06:45:33.050Z,98796.89
2018-04-20T06:47:59.279Z,98792.16
2018-04-20T06:50:25.555Z,98792.58
2018-04-20T06:52:51.778Z,98792.11
2018-04-20T06:55:18.006Z,98792.05
2018-04-20T06:57:44.262Z,98790.55
2018-04-20T07:00:10.531Z,98794.88
2018-04-20T07:02:36.800Z,98787.88
2018-04-20T07:05:03.078Z,98790.37
2018-04-20T07:07:29.329Z,98781.88
2018-04-20T07:09:55.563Z,98782.37
2018-04-20T07:12:21.831Z,98786.12
2018-04-20T07:14:48.090Z,98774.11
2018-04-20T07:17:14.389Z,98777.80
2018-04-20T07:19:40.623Z,98770.45
2018-04-20T07:22:06.902Z,98771.26
2018-04-20T07:24:33.170Z,98769.98
2018-04-20T07:26:59.427Z,98776.21
2018-04-20T07:29:25.678Z,98769.38
2018-04-20T07:31:51.902Z,98768.75
2018-04-20T07:34:18.153Z,98769.13
2018-04-20T07:36:44.387Z,98767.49
2018-04-20T07:39:10.647Z,98771.41
2018-04-20T07:41:36.950Z,98771.42
2018-04-20T07:44:03.123Z,98772.97
2018-04-20T07:46:29.394Z,98772.52
2018-04-20T07:48:55.620Z,98762.73
2018-04-20T07:51:21.871Z,98769.42
2018-04-20T07:53:48.122Z,98771.38
2018-04-20T07:56:14.377Z,98775.70
2018-04-20T07:58:40.620Z,98767.38
2018-04-20T08:01:06.875Z,98768.91
2018-04-20T08:03:33.106Z,98769.33
2018-04-20T08:05:59.362Z,98764.77
2018-04-20T08:08:25.635Z,98759.37
2018-04-20T08:10:51.867Z,98768.78
2018-04-20T08:13:18.115Z,98772.95
2018-04-20T08:15:44.370Z,98764.27
2018-04-20T08:18:10.618Z,98756.55
2018-04-20T08:20:36.847Z,98758.09
2018-04-20T08:23:03.138Z,98762.67
2018-04-20T08:25:29.366Z,98760.29
2018-04-20T08:27:55.610Z,98755.42
2018-04-20T08:30:21.870Z,98763.13
2018-04-20T08:32:48.099Z,98762.40
2018-04-20T08:35:14.371Z,98761.83
2018-04-20T08:37:40.614Z,98762.12
2018-04-20T08:40:06.895Z,98753.82
2018-04-20T08:42:33.123Z,98760.52
2018-04-20T08:44:59.383Z,98756.15
2018-04-20T08:47:25.619Z,98758.58
2018-04-20T08:49:51.862Z,98758.71
2018-04-20T08:52:18.107Z,98753.50
2018-04-20T08:54:44.358Z,98754.86
2018-04-20T08:57:10.694Z,98754.65
2018-04-20T08:59:36.914Z,98754.66
2018-04-20T09:02:03.192Z,98745.19
2018-04-20T09:04:29.418Z,98740.89
2018-04-20T09:06:55.668Z,98747.48
2018-04-20T09:09:21.891Z,98745.64
2018-04-20T09:11:48.150Z,98744.11
2018-04-20T09:14:14.482Z,98749.09
2018-04-20T09:16:40.708Z,98742.09
2018-04-20T09:19:06.981Z,98733.63
2018-04-20T09:21:33.199Z,98737.22
2018-04-20T09:23:59.440Z,98729.09
2018-04-20T09:26:25.663Z,98730.94
2018-04-20T09:28:51.986Z,98725.09
2018-04-20T09:31:18.208Z,98729.94
2018-04-20T09:33:44.507Z,98729.41
2018-04-20T09:36:10.754Z,98725.52
2018-04-20T09:38:36.991Z,98723.78
2018-04-20T09:41:03.239Z,98721.91
2018-04-20T09:43:29.475Z,98716.36
2018-04-20T09:45:55.715Z,98712.46
2018-04-20T09:48:21.941Z,98714.58
2018-04-20T09:50:48.203Z,98706.44
2018-04-20T09:53:14.447Z,98714.22
2018-04-20T09:55:40.708Z,98711.22
2018-04-20T09:58:06.956Z,98710.95
2018-04-20T10:00:39.286Z,98702.30
2018-04-20T10:03:06.540Z,98703.52
2018-04-20T10:05:32.859Z,98698.33
2018-04-20T10:07:59.087Z,98699.55
2018-04-20T10:10:25.339Z,98704.73
2018-04-20T10:12:51.613Z,98702.16
2018-04-20T10:15:17.871Z,98699.25
2018-04-20T10:17:44.120Z,98695.40
2018-04-20T10:20:10.362Z,98689.87
2018-04-20T10:22:36.590Z,98690.92
2018-04-20T10:25:02.870Z,98693.81
2018-04-20T10:27:29.091Z,98686.28
2018-04-20T10:29:55.339Z,98690.09
2018-04-20T10:32:21.559Z,98685.14
2018-04-20T10:34:47.822Z,98678.52
2018-04-20T10:37:14.051Z,98680.26
2018-04-20T10:39:40.307Z,98680.30
2018-04-20T10:42:06.526Z,98674.66
2018-04-20T10:44:32.742Z,98671.20
2018-04-20T10:46:58.992Z,98666.87
2018-04-20T10:49:25.239Z,98664.88
2018-04-20T10:51:51.488Z,98667.51
2018-04-20T10:54:17.714Z,98668.34
2018-04-20T10:56:43.966Z,98657.48
2018-04-20T10:59:10.187Z,98658.95
2018-04-20T11:01:36.455Z,98654.63
2018-04-20T11:04:02.699Z,98645.98
2018-04-20T11:06:28.935Z,98654.97
2018-04-20T11:08:55.224Z,98650.58
2018-04-20T11:11:21.488Z,98640.05
2018-04-20T11:13:47.719Z,98636.55
2018-04-20T11:16:13.965Z,98632.95
2018-04-20T11:18:40.222Z,98634.89
2018-04-20T11:21:06.456Z,98636.30
2018-04-20T11:23:32.687Z,98627.10
2018-04-20T11:25:58.941Z,98629.05
2018-04-20T11:28:25.199Z,98627.52
2018-04-20T11:30:51.462Z,98623.28
2018-04-20T11:33:17.696Z,98623.39
2018-04-20T11:35:43.964Z,98624.39
2018-04-20T11:38:10.211Z,98617.58
2018-04-20T11:40:36.466Z,98609.97
2018-04-20T11:43:02.727Z,98615.75
2018-04-20T11:45:28.955Z,98613.83
2018-04-20T11:47:55.206Z,98609.41
2018-04-20T11:50:21.470Z,98606.92
2018-04-20T11:52:47.734Z,98600.98
2018-04-20T11:55:13.951Z,98594.25
2018-04-20T11:57:40.214Z,98591.16
2018-04-20T12:00:06.456Z,98592.95
2018-04-20T12:02:32.708Z,98587.02
2018-04-20T12:04:58.976Z,98588.13
2018-04-20T12:07:25.211Z,98576.39
2018-04-20T12:09:51.455Z,98575.42
2018-04-20T12:12:17.678Z,98571.61
2018-04-20T12:14:43.963Z,98570.80
2018-04-20T12:17:10.194Z,98571.42
2018-04-20T12:19:36.443Z,98565.50
2018-04-20T12:22:02.688Z,98561.26
2018-04-20T12:24:28.938Z,98560.64
2018-04-20T12:26:55.171Z,98550.70
2018-04-20T12:29:21.428Z,98549.40
2018-04-20T12:31:47.691Z,98547.95
2018-04-20T12:34:13.942Z,98544.03
2018-04-20T12:36:40.182Z,98534.34
2018-04-20T12:39:06.426Z,98537.53
2018-04-20T12:41:32.686Z,98542.03
2018-04-20T12:43:58.918Z,98529.20
2018-04-20T12:46:25.175Z,98520.31
2018-04-20T12:48:51.403Z,98520.62
2018-04-20T12:51:17.655Z,98513.58
2018-04-20T12:53:43.914Z,98513.22
2018-04-20T12:56:10.143Z,98509.63
2018-04-20T12:58:36.442Z,98508.45
2018-04-20T13:01:02.676Z,98500.17
2018-04-20T13:03:28.948Z,98501.88
2018-04-20T13:05:55.172Z,98489.59
2018-04-20T13:08:21.463Z,98487.80
2018-04-20T13:10:47.689Z,98487.28
2018-04-20T13:13:13.922Z,98486.02
2018-04-20T13:15:40.167Z,98481.22
2018-04-20T13:18:06.404Z,98471.28
2018-04-20T13:20:32.648Z,98473.56
2018-04-20T13:22:58.871Z,98464.36
2018-04-20T13:25:25.115Z,98461.09
2018-04-20T13:27:51.369Z,98453.69
2018-04-20T13:30:17.635Z,98448.09
2018-04-20T13:32:43.859Z,98441.74
2018-04-20T13:35:10.088Z,98441.36
2018-04-20T13:37:36.340Z,98438.53
2018-04-20T13:40:02.614Z,98438.08
2018-04-20T13:42:28.857Z,98436.39
2018-04-20T13:44:55.115Z,98433.34
2018-04-20T13:47:21.363Z,98421.27
2018-04-20T13:49:47.615Z,98422.82
2018-04-20T13:52:13.923Z,98415.97
2018-04-20T13:54:40.147Z,98411.97
2018-04-20T13:57:06.371Z,98416.23
2018-04-20T13:59:32.619Z,98409.77
2018-04-20T14:01:58.863Z,98402.72
2018-04-20T14:04:25.118Z,98399.95
2018-04-20T14:06:51.347Z,98394.91
2018-04-20T14:09:17.598Z,98387.13
2018-04-20T14:11:43.832Z,98388.08
2018-04-20T14:14:10.147Z,98388.61
2018-04-20T14:16:36.527Z,98382.58
2018-04-20T14:19:02.795Z,98378.98
2018-04-20T14:21:29.157Z,98375.11
2018-04-20T14:23:55.420Z,98368.09
2018-04-20T14:26:22.039Z,98371.57
2018-04-20T14:28:48.336Z,98369.97
2018-04-20T14:31:14.795Z,98366.26
2018-04-20T14:33:41.113Z,98366.26
2018-04-20T14:36:07.416Z,98360.53
2018-04-20T14:38:33.809Z,98354.14
2018-04-20T14:41:00.045Z,98349.63
2018-04-20T14:43:26.320Z,98356.08
2018-04-20T14:45:52.559Z,98352.64
2018-04-20T14:48:18.860Z,98352.95
2018-04-20T14:50:45.103Z,98343.87
2018-04-20T14:53:11.359Z,98342.91
2018-04-20T14:55:37.588Z,98341.95
2018-04-20T14:58:03.859Z,98337.70
2018-04-20T15:00:30.151Z,98335.05
2018-04-20T15:02:56.434Z,98333.86
2018-04-20T15:05:22.732Z,98332.42
2018-04-20T15:07:49.028Z,98336.84
2018-04-20T15:10:15.304Z,98333.55
2018-04-20T15:12:41.544Z,98334.84
2018-04-20T15:15:07.799Z,98329.46
2018-04-20T15:17:34.059Z,98330.84
2018-04-20T15:20:00.327Z,98327.03
2018-04-20T15:22:26.582Z,98331.65
2018-04-20T15:24:52.823Z,98326.56
2018-04-20T15:27:19.094Z,98322.59
2018-04-20T15:29:45.330Z,98319.29
2018-04-20T15:32:11.591Z,98312.84
2018-04-20T15:34:37.822Z,98318.47
2018-04-20T15:37:04.083Z,98313.61
2018-04-20T15:39:30.318Z,98313.74
2018-04-20T15:41:56.571Z,98305.78
2018-04-20T15:44:22.803Z,98300.78
2018-04-20T15:46:49.074Z,98299.86
2018-04-20T15:49:15.320Z,98307.08
2018-04-20T15:51:41.555Z,98302.20
2018-04-20T15:54:07.807Z,98300.43
2018-04-20T15:56:34.102Z,98304.72
2018-04-20T15:59:00.350Z,98292.13
2018-04-20T16:01:26.591Z,98299.97
2018-04-20T16:03:52.838Z,98294.28
2018-04-20T16:06:19.081Z,98288.72
2018-04-20T16:08:45.379Z,98287.92
2018-04-20T16:11:11.666Z,98288.78
2018-04-20T16:13:38.184Z,98283.09
2018-04-20T16:16:04.436Z,98281.82
2018-04-20T16:18:31.292Z,98282.84
2018-04-20T16:20:57.541Z,98282.92
2018-04-20T16:23:23.856Z,98275.81
2018-04-20T16:25:50.114Z,98274.30
2018-04-20T16:28:16.339Z,98273.30
2018-04-20T16:30:42.607Z,98278.72
2018-04-20T16:33:08.859Z,98270.28
2018-04-20T16:35:35.128Z,98268.33
2018-04-20T16:38:01.371Z,98264.53
2018-04-20T16:40:27.662Z,98269.13
2018-04-20T16:42:53.893Z,98264.59
2018-04-20T16:45:20.136Z,98261.35
2018-04-20T16:47:46.424Z,98263.39
2018-04-20T16:50:12.679Z,98255.39
2018-04-20T16:52:38.943Z,98247.63
2018-04-20T16:55:05.207Z,98251.35
2018-04-20T16:57:31.462Z,98251.37
2018-04-20T16:59:57.692Z,98256.11
2018-04-20T17:02:23.951Z,98249.55
2018-04-20T17:04:50.202Z,98250.87
2018-04-20T17:07:16.462Z,98244.28
2018-04-20T17:12:15.608Z,98240.01
2018-04-20T17:14:41.867Z,98243.39
2018-04-20T17:17:08.115Z,98243.86
2018-04-20T17:19:34.384Z,98235.16
2018-04-20T17:22:00.624Z,98235.70
2018-04-20T17:24:26.879Z,98226.77
2018-04-20T17:26:53.108Z,98232.34
2018-04-20T17:29:19.371Z,98233.72
2018-04-20T17:31:45.627Z,98233.04
2018-04-20T17:34:11.859Z,98231.13
2018-04-20T17:36:38.117Z,98229.57
2018-04-20T17:39:05.431Z,98232.83
2018-04-20T17:41:31.688Z,98226.87
2018-04-20T17:43:57.947Z,98230.94
2018-04-20T17:46:24.249Z,98225.81
2018-04-20T17:48:50.472Z,98227.16
2018-04-20T17:51:16.742Z,98222.20
2018-04-20T17:53:42.987Z,98225.86
2018-04-20T17:56:09.215Z,98226.05
2018-04-20T17:58:35.467Z,98224.67
2018-04-20T18:01:01.708Z,98227.70
2018-04-20T18:03:27.980Z,98229.88
2018-04-20T18:05:54.214Z,98233.91
2018-04-20T18:08:20.491Z,98231.80
2018-04-20T18:10:46.741Z,98231.34
2018-04-20T18:13:12.991Z,98233.95
2018-04-20T18:15:39.243Z,98233.59
2018-04-20T18:18:05.564Z,98241.69
2018-04-20T18:20:31.865Z,98239.22
2018-04-20T18:22:58.116Z,98238.91
2018-04-20T18:25:24.378Z,98239.30
2018-04-20T18:27:50.607Z,98245.41
2018-04-20T18:30:16.879Z,98243.91
2018-04-20T18:32:43.136Z,98235.88
2018-04-20T18:35:09.395Z,98239.56
2018-04-20T18:37:35.669Z,98240.69
2018-04-20T18:40:01.908Z,98248.08
2018-04-20T18:42:28.147Z,98247.30
2018-04-20T18:44:54.392Z,98240.98
2018-04-20T18:47:20.643Z,98242.92
2018-04-20T18:49:46.900Z,98244.55
2018-04-20T18:52:13.155Z,98248.37
2018-04-20T18:54:39.399Z,98245.94
2018-04-20T18:57:05.656Z,98243.66
2018-04-20T18:59:31.910Z,98250.09
2018-04-20T19:01:58.136Z,98249.72
2018-04-20T19:04:24.381Z,98246.77
2018-04-20T19:06:50.617Z,98247.95
2018-04-20T19:09:16.869Z,98249.55
2018-04-20T19:11:43.103Z,98245.78
2018-04-20T19:14:09.355Z,98246.48
2018-04-20T19:16:35.610Z,98244.66
2018-04-20T19:19:01.884Z,98246.73
2018-04-20T19:21:28.150Z,98247.77
2018-04-20T19:23:54.385Z,98245.08
2018-04-20T19:26:20.715Z,98241.20
2018-04-20T19:28:46.947Z,98241.54
2018-04-20T19:31:14.356Z,98236.05
2018-04-20T19:33:40.598Z,98236.42
2018-04-20T19:36:06.851Z,98242.81
2018-04-20T19:38:33.287Z,98232.59
2018-04-20T19:40:59.515Z,98228.06
2018-04-20T19:43:25.797Z,98230.89
2018-04-20T19:45:52.080Z,98225.87
2018-04-20T19:48:18.413Z,98223.15
2018-04-20T19:50:44.678Z,98228.13
2018-04-20T19:53:11.127Z,98228.11
2018-04-20T19:55:37.392Z,98226.91
2018-04-20T19:58:03.837Z,98228.62
2018-04-20T20:00:30.104Z,98227.20
2018-04-20T20:02:56.360Z,98227.74
2018-04-20T20:05:22.818Z,98232.91
2018-04-20T20:07:49.086Z,98223.11
2018-04-20T20:10:15.356Z,98226.31
2018-04-20T20:12:41.607Z,98226.81
2018-04-20T20:15:07.848Z,98229.38
2018-04-20T20:17:34.119Z,98234.87
2018-04-20T20:20:00.354Z,98227.84
2018-04-20T20:22:26.608Z,98224.84
2018-04-20T20:24:52.844Z,98226.47
2018-04-20T20:27:19.119Z,98218.98
2018-04-20T20:29:45.355Z,98221.80
2018-04-20T20:32:11.627Z,98216.13
2018-04-20T20:34:37.867Z,98215.98
2018-04-20T20:37:04.103Z,98213.84
2018-04-20T20:39:30.377Z,98213.62
2018-04-20T20:41:56.646Z,98210.48
2018-04-20T20:44:22.907Z,98213.77
2018-04-20T20:46:49.167Z,98208.11
2018-04-20T20:49:15.433Z,98208.61
2018-04-20T20:51:41.680Z,98202.73
2018-04-20T20:54:07.951Z,98194.99
2018-04-20T20:56:34.215Z,98198.61
2018-04-20T20:59:00.627Z,98199.39
2018-04-20T21:01:26.883Z,98196.33
2018-04-20T21:03:53.187Z,98195.83
2018-04-20T21:06:19.485Z,98199.50
2018-04-20T21:08:45.739Z,98200.00
2018-04-20T21:11:12.063Z,98197.47
2018-04-20T21:13:38.311Z,98199.47
2018-04-20T21:16:04.582Z,98203.02
2018-04-20T21:18:30.839Z,98201.17
2018-04-20T21:20:57.087Z,98198.41
2018-04-20T21:23:23.355Z,98196.22
2018-04-20T21:28:22.358Z,98198.99
2018-04-20T21:30:48.604Z,98197.36
2018-04-20T21:33:15.348Z,98198.97
2018-04-20T21:35:41.149Z,98200.38
2018-04-20T21:38:07.426Z,98196.34
2018-04-20T21:40:33.791Z,98199.56
2018-04-20T21:43:00.095Z,98204.08
2018-04-20T21:45:26.393Z,98198.29
2018-04-20T21:47:52.653Z,98199.32
2018-04-20T21:50:18.914Z,98203.05
2018-04-20T21:52:45.190Z,98199.27
2018-04-20T21:55:11.486Z,98203.91
2018-04-20T21:57:37.736Z,98212.94
2018-04-20T22:00:04.060Z,98212.70
2018-04-20T22:02:30.320Z,98212.13
2018-04-20T22:04:56.563Z,98213.58
2018-04-20T22:07:22.826Z,98213.27
2018-04-20T22:09:49.067Z,98213.09
2018-04-20T22:12:15.336Z,98212.03
2018-04-20T22:14:41.584Z,98212.94
2018-04-20T22:17:07.901Z,98210.84
2018-04-20T22:19:34.159Z,98213.22
2018-04-20T22:22:00.412Z,98213.40
2018-04-20T22:24:26.658Z,98212.37
2018-04-20T22:26:53.176Z,98213.45
2018-04-20T22:29:19.408Z,98213.72
2018-04-20T22:31:45.667Z,98214.66
2018-04-20T22:34:11.930Z,98217.71
2018-04-20T22:36:38.172Z,98218.95
2018-04-20T22:39:05.432Z,98222.41
2018-04-20T22:41:31.707Z,98220.72
2018-04-20T22:43:57.967Z,98220.53
2018-04-20T22:46:24.204Z,98209.80
2018-04-20T22:48:50.495Z,98217.68
2018-04-20T22:51:16.742Z,98214.05
2018-04-20T22:53:42.982Z,98212.77
2018-04-20T22:56:09.306Z,98209.95
2018-04-20T22:58:35.554Z,98212.20
2018-04-20T23:01:01.815Z,98205.66
2018-04-20T23:03:28.075Z,98200.77
2018-04-20T23:08:27.212Z,98196.70
2018-04-20T23:10:53.491Z,98200.48
2018-04-20T23:13:19.710Z,98189.00
2018-04-20T23:15:45.939Z,98192.58
2018-04-20T23:18:12.219Z,98190.84
2018-04-20T23:20:38.471Z,98189.16
2018-04-20T23:23:04.750Z,98190.72
2018-04-20T23:25:31.020Z,98187.73
2018-04-20T23:27:57.279Z,98181.91
2018-04-20T23:30:23.523Z,98179.48
2018-04-20T23:32:49.783Z,98171.18
2018-04-20T23:35:16.018Z,98173.30
2018-04-20T23:37:42.391Z,98168.36
2018-04-20T23:40:08.643Z,98169.97
2018-04-20T23:42:34.907Z,98164.27
2018-04-20T23:45:01.199Z,98162.11
2018-04-20T23:47:27.439Z,98154.64
2018-04-20T23:49:53.703Z,98160.01
2018-04-20T23:52:19.946Z,98160.58
2018-04-20T23:54:46.226Z,98151.45
2018-04-20T23:57:12.504Z,98154.06
2018-04-20T23:59:38.740Z,98150.16
